sensor_id;sensor_type;location;lat;lon;timestamp;P1;durP1;ratioP1;P2;durP2;ratioP2
68744;SDS011;73143;45.456;11.064;2023-12-07T00:00:47;10.40;;;7.00;;
68744;SDS011;73143;45.456;11.064;2023-12-07T00:03:24;8.80;;;6.40;;
68744;SDS011;73143;45.456;11.064;2023-12-07T00:06:01;11.50;;;7.80;;
68744;SDS011;73143;45.456;11.064;2023-12-07T00:08:39;9.60;;;7.10;;
68744;SDS011;73143;45.456;11.064;2023-12-07T00:11:16;9.40;;;7.10;;
68744;SDS011;73143;45.456;11.064;2023-12-07T00:13:53;9.20;;;6.50;;
68744;SDS011;73143;45.456;11.064;2023-12-07T00:16:31;9.10;;;6.60;;
68744;SDS011;73143;45.456;11.064;2023-12-07T00:19:08;10.20;;;6.50;;
68744;SDS011;73143;45.456;11.064;2023-12-07T00:21:44;10.80;;;6.70;;
68744;SDS011;73143;45.456;11.064;2023-12-07T00:24:21;12.30;;;6.90;;
68744;SDS011;73143;45.456;11.064;2023-12-07T00:26:59;12.50;;;7.30;;
68744;SDS011;73143;45.456;11.064;2023-12-07T00:29:39;11.30;;;7.80;;
68744;SDS011;73143;45.456;11.064;2023-12-07T00:32:17;10.20;;;7.60;;
68744;SDS011;73143;45.456;11.064;2023-12-07T00:34:56;10.70;;;8.00;;
68744;SDS011;73143;45.456;11.064;2023-12-07T00:37:33;14.50;;;8.40;;
68744;SDS011;73143;45.456;11.064;2023-12-07T00:40:12;11.30;;;7.40;;
68744;SDS011;73143;45.456;11.064;2023-12-07T00:42:50;10.30;;;7.30;;
68744;SDS011;73143;45.456;11.064;2023-12-07T00:45:26;12.30;;;7.70;;
68744;SDS011;73143;45.456;11.064;2023-12-07T00:48:03;10.50;;;7.40;;
68744;SDS011;73143;45.456;11.064;2023-12-07T00:50:41;11.50;;;7.40;;
68744;SDS011;73143;45.456;11.064;2023-12-07T00:53:19;10.10;;;7.10;;
68744;SDS011;73143;45.456;11.064;2023-12-07T00:55:56;10.10;;;6.20;;
68744;SDS011;73143;45.456;11.064;2023-12-07T00:58:33;12.80;;;7.10;;
68744;SDS011;73143;45.456;11.064;2023-12-07T01:01:11;8.60;;;6.20;;
68744;SDS011;73143;45.456;11.064;2023-12-07T01:03:47;9.20;;;6.20;;
68744;SDS011;73143;45.456;11.064;2023-12-07T01:06:25;8.70;;;6.00;;
68744;SDS011;73143;45.456;11.064;2023-12-07T01:09:02;9.80;;;5.60;;
68744;SDS011;73143;45.456;11.064;2023-12-07T01:11:41;8.90;;;5.80;;
68744;SDS011;73143;45.456;11.064;2023-12-07T01:14:18;9.10;;;5.50;;
68744;SDS011;73143;45.456;11.064;2023-12-07T01:16:56;9.00;;;5.70;;
68744;SDS011;73143;45.456;11.064;2023-12-07T01:19:35;7.80;;;5.90;;
68744;SDS011;73143;45.456;11.064;2023-12-07T01:22:12;9.00;;;5.70;;
68744;SDS011;73143;45.456;11.064;2023-12-07T01:24:50;9.40;;;5.70;;
68744;SDS011;73143;45.456;11.064;2023-12-07T01:27:27;10.90;;;6.00;;
68744;SDS011;73143;45.456;11.064;2023-12-07T01:30:05;7.20;;;5.30;;
68744;SDS011;73143;45.456;11.064;2023-12-07T01:32:43;8.30;;;5.90;;
68744;SDS011;73143;45.456;11.064;2023-12-07T01:35:21;9.00;;;6.50;;
68744;SDS011;73143;45.456;11.064;2023-12-07T01:37:59;15.40;;;9.00;;
68744;SDS011;73143;45.456;11.064;2023-12-07T01:40:36;12.80;;;8.30;;
68744;SDS011;73143;45.456;11.064;2023-12-07T01:43:17;12.10;;;7.80;;
68744;SDS011;73143;45.456;11.064;2023-12-07T01:45:58;10.80;;;8.20;;
68744;SDS011;73143;45.456;11.064;2023-12-07T01:48:35;12.90;;;9.00;;
68744;SDS011;73143;45.456;11.064;2023-12-07T01:51:13;14.90;;;9.60;;
68744;SDS011;73143;45.456;11.064;2023-12-07T01:53:51;11.60;;;8.50;;
68744;SDS011;73143;45.456;11.064;2023-12-07T01:56:29;11.20;;;7.90;;
68744;SDS011;73143;45.456;11.064;2023-12-07T01:59:07;12.80;;;7.70;;
68744;SDS011;73143;45.456;11.064;2023-12-07T02:01:45;11.70;;;7.60;;
68744;SDS011;73143;45.456;11.064;2023-12-07T02:04:23;12.10;;;6.80;;
68744;SDS011;73143;45.456;11.064;2023-12-07T02:07:01;10.50;;;6.70;;
68744;SDS011;73143;45.456;11.064;2023-12-07T02:09:40;9.30;;;6.00;;
68744;SDS011;73143;45.456;11.064;2023-12-07T02:12:18;7.90;;;5.80;;
68744;SDS011;73143;45.456;11.064;2023-12-07T02:14:56;9.80;;;6.10;;
68744;SDS011;73143;45.456;11.064;2023-12-07T02:17:38;9.40;;;6.30;;
68744;SDS011;73143;45.456;11.064;2023-12-07T02:20:31;9.60;;;5.90;;
68744;SDS011;73143;45.456;11.064;2023-12-07T02:23:13;10.40;;;6.50;;
68744;SDS011;73143;45.456;11.064;2023-12-07T02:26:12;11.00;;;7.30;;
68744;SDS011;73143;45.456;11.064;2023-12-07T02:28:52;10.30;;;6.90;;
68744;SDS011;73143;45.456;11.064;2023-12-07T02:31:29;9.40;;;6.50;;
68744;SDS011;73143;45.456;11.064;2023-12-07T02:34:07;10.70;;;6.60;;
68744;SDS011;73143;45.456;11.064;2023-12-07T02:36:45;9.00;;;6.70;;
68744;SDS011;73143;45.456;11.064;2023-12-07T02:39:23;9.90;;;6.80;;
68744;SDS011;73143;45.456;11.064;2023-12-07T02:42:03;9.50;;;6.60;;
68744;SDS011;73143;45.456;11.064;2023-12-07T02:44:42;10.00;;;6.50;;
68744;SDS011;73143;45.456;11.064;2023-12-07T02:47:19;10.40;;;6.40;;
68744;SDS011;73143;45.456;11.064;2023-12-07T02:49:56;9.30;;;6.40;;
68744;SDS011;73143;45.456;11.064;2023-12-07T02:52:33;9.70;;;6.40;;
68744;SDS011;73143;45.456;11.064;2023-12-07T02:55:12;12.10;;;8.10;;
68744;SDS011;73143;45.456;11.064;2023-12-07T02:57:49;12.20;;;8.50;;
68744;SDS011;73143;45.456;11.064;2023-12-07T03:00:26;10.70;;;7.80;;
68744;SDS011;73143;45.456;11.064;2023-12-07T03:03:02;10.30;;;7.40;;
68744;SDS011;73143;45.456;11.064;2023-12-07T03:05:39;11.60;;;8.40;;
68744;SDS011;73143;45.456;11.064;2023-12-07T03:08:17;11.80;;;8.40;;
68744;SDS011;73143;45.456;11.064;2023-12-07T03:10:54;13.50;;;8.70;;
68744;SDS011;73143;45.456;11.064;2023-12-07T03:13:31;14.20;;;10.00;;
68744;SDS011;73143;45.456;11.064;2023-12-07T03:16:11;13.80;;;10.30;;
68744;SDS011;73143;45.456;11.064;2023-12-07T03:18:48;15.90;;;10.50;;
68744;SDS011;73143;45.456;11.064;2023-12-07T03:21:27;13.40;;;9.50;;
68744;SDS011;73143;45.456;11.064;2023-12-07T03:24:06;12.70;;;9.10;;
68744;SDS011;73143;45.456;11.064;2023-12-07T03:26:44;13.70;;;9.80;;
68744;SDS011;73143;45.456;11.064;2023-12-07T03:29:21;13.80;;;9.50;;
68744;SDS011;73143;45.456;11.064;2023-12-07T03:31:57;12.20;;;9.30;;
68744;SDS011;73143;45.456;11.064;2023-12-07T03:34:34;12.10;;;8.50;;
68744;SDS011;73143;45.456;11.064;2023-12-07T03:37:12;10.70;;;7.50;;
68744;SDS011;73143;45.456;11.064;2023-12-07T03:39:49;12.20;;;7.20;;
68744;SDS011;73143;45.456;11.064;2023-12-07T03:42:27;10.20;;;7.30;;
68744;SDS011;73143;45.456;11.064;2023-12-07T03:45:24;10.60;;;7.60;;
68744;SDS011;73143;45.456;11.064;2023-12-07T03:48:02;11.10;;;6.80;;
68744;SDS011;73143;45.456;11.064;2023-12-07T03:50:41;11.10;;;7.80;;
68744;SDS011;73143;45.456;11.064;2023-12-07T03:53:18;9.60;;;7.40;;
68744;SDS011;73143;45.456;11.064;2023-12-07T03:55:55;11.10;;;7.40;;
68744;SDS011;73143;45.456;11.064;2023-12-07T03:58:32;10.70;;;7.00;;
68744;SDS011;73143;45.456;11.064;2023-12-07T04:01:09;10.40;;;7.00;;
68744;SDS011;73143;45.456;11.064;2023-12-07T04:03:47;11.40;;;7.10;;
68744;SDS011;73143;45.456;11.064;2023-12-07T04:06:24;10.50;;;7.30;;
68744;SDS011;73143;45.456;11.064;2023-12-07T04:09:00;11.50;;;8.20;;
68744;SDS011;73143;45.456;11.064;2023-12-07T04:11:37;9.80;;;7.20;;
68744;SDS011;73143;45.456;11.064;2023-12-07T04:14:14;11.40;;;8.70;;
68744;SDS011;73143;45.456;11.064;2023-12-07T04:16:50;13.80;;;9.10;;
68744;SDS011;73143;45.456;11.064;2023-12-07T04:19:27;14.40;;;9.20;;
68744;SDS011;73143;45.456;11.064;2023-12-07T04:22:04;11.30;;;8.40;;
68744;SDS011;73143;45.456;11.064;2023-12-07T04:24:41;11.40;;;7.90;;
68744;SDS011;73143;45.456;11.064;2023-12-07T04:27:19;11.20;;;8.20;;
68744;SDS011;73143;45.456;11.064;2023-12-07T04:29:57;13.40;;;9.10;;
68744;SDS011;73143;45.456;11.064;2023-12-07T04:32:34;13.50;;;9.00;;
68744;SDS011;73143;45.456;11.064;2023-12-07T04:35:11;14.10;;;8.40;;
68744;SDS011;73143;45.456;11.064;2023-12-07T04:37:49;11.20;;;7.60;;
68744;SDS011;73143;45.456;11.064;2023-12-07T04:40:29;10.30;;;7.60;;
68744;SDS011;73143;45.456;11.064;2023-12-07T04:43:06;10.30;;;7.40;;
68744;SDS011;73143;45.456;11.064;2023-12-07T04:45:43;10.10;;;6.80;;
68744;SDS011;73143;45.456;11.064;2023-12-07T04:48:20;10.80;;;7.30;;
68744;SDS011;73143;45.456;11.064;2023-12-07T04:50:58;10.10;;;7.20;;
68744;SDS011;73143;45.456;11.064;2023-12-07T04:53:37;11.40;;;7.50;;
68744;SDS011;73143;45.456;11.064;2023-12-07T04:56:14;9.70;;;7.60;;
68744;SDS011;73143;45.456;11.064;2023-12-07T04:58:51;10.40;;;7.30;;
68744;SDS011;73143;45.456;11.064;2023-12-07T05:01:28;10.70;;;7.10;;
68744;SDS011;73143;45.456;11.064;2023-12-07T05:04:06;9.30;;;6.70;;
68744;SDS011;73143;45.456;11.064;2023-12-07T05:06:43;9.90;;;6.50;;
68744;SDS011;73143;45.456;11.064;2023-12-07T05:09:21;12.50;;;7.20;;
68744;SDS011;73143;45.456;11.064;2023-12-07T05:11:58;8.90;;;6.50;;
68744;SDS011;73143;45.456;11.064;2023-12-07T05:14:35;9.80;;;7.20;;
68744;SDS011;73143;45.456;11.064;2023-12-07T05:17:12;10.00;;;6.40;;
68744;SDS011;73143;45.456;11.064;2023-12-07T05:19:49;9.50;;;7.00;;
68744;SDS011;73143;45.456;11.064;2023-12-07T05:22:26;11.10;;;7.70;;
68744;SDS011;73143;45.456;11.064;2023-12-07T05:25:04;11.70;;;7.20;;
68744;SDS011;73143;45.456;11.064;2023-12-07T05:27:42;11.20;;;8.50;;
68744;SDS011;73143;45.456;11.064;2023-12-07T05:30:20;9.00;;;6.60;;
68744;SDS011;73143;45.456;11.064;2023-12-07T05:32:57;12.80;;;8.10;;
68744;SDS011;73143;45.456;11.064;2023-12-07T05:35:35;11.10;;;7.90;;
68744;SDS011;73143;45.456;11.064;2023-12-07T05:38:12;11.20;;;8.00;;
68744;SDS011;73143;45.456;11.064;2023-12-07T05:40:49;10.50;;;7.80;;
68744;SDS011;73143;45.456;11.064;2023-12-07T05:43:27;12.90;;;8.50;;
68744;SDS011;73143;45.456;11.064;2023-12-07T05:46:06;11.90;;;8.30;;
68744;SDS011;73143;45.456;11.064;2023-12-07T05:48:44;12.80;;;8.70;;
68744;SDS011;73143;45.456;11.064;2023-12-07T05:51:24;12.10;;;7.90;;
68744;SDS011;73143;45.456;11.064;2023-12-07T05:54:01;12.30;;;8.40;;
68744;SDS011;73143;45.456;11.064;2023-12-07T05:56:39;12.40;;;8.20;;
68744;SDS011;73143;45.456;11.064;2023-12-07T05:59:17;12.70;;;7.40;;
68744;SDS011;73143;45.456;11.064;2023-12-07T06:01:56;14.30;;;8.60;;
68744;SDS011;73143;45.456;11.064;2023-12-07T06:04:34;12.90;;;8.70;;
68744;SDS011;73143;45.456;11.064;2023-12-07T06:07:12;11.40;;;8.40;;
68744;SDS011;73143;45.456;11.064;2023-12-07T06:09:49;15.90;;;8.80;;
68744;SDS011;73143;45.456;11.064;2023-12-07T06:12:27;13.40;;;9.00;;
68744;SDS011;73143;45.456;11.064;2023-12-07T06:15:04;15.80;;;9.00;;
68744;SDS011;73143;45.456;11.064;2023-12-07T06:17:45;11.90;;;8.20;;
68744;SDS011;73143;45.456;11.064;2023-12-07T06:20:23;14.70;;;8.00;;
68744;SDS011;73143;45.456;11.064;2023-12-07T06:23:00;12.30;;;8.00;;
68744;SDS011;73143;45.456;11.064;2023-12-07T06:25:37;15.10;;;8.00;;
68744;SDS011;73143;45.456;11.064;2023-12-07T06:28:14;11.00;;;7.40;;
68744;SDS011;73143;45.456;11.064;2023-12-07T06:30:51;13.90;;;7.30;;
68744;SDS011;73143;45.456;11.064;2023-12-07T06:33:29;13.90;;;7.40;;
68744;SDS011;73143;45.456;11.064;2023-12-07T06:36:10;10.30;;;6.40;;
68744;SDS011;73143;45.456;11.064;2023-12-07T06:38:51;9.90;;;6.20;;
68744;SDS011;73143;45.456;11.064;2023-12-07T06:41:29;9.80;;;6.60;;
68744;SDS011;73143;45.456;11.064;2023-12-07T06:44:06;10.30;;;6.50;;
68744;SDS011;73143;45.456;11.064;2023-12-07T06:46:44;10.70;;;7.00;;
68744;SDS011;73143;45.456;11.064;2023-12-07T06:49:21;12.00;;;7.10;;
68744;SDS011;73143;45.456;11.064;2023-12-07T06:52:17;10.70;;;6.50;;
68744;SDS011;73143;45.456;11.064;2023-12-07T06:54:54;10.80;;;6.90;;
68744;SDS011;73143;45.456;11.064;2023-12-07T06:57:31;15.70;;;9.90;;
68744;SDS011;73143;45.456;11.064;2023-12-07T07:00:13;14.40;;;9.40;;
68744;SDS011;73143;45.456;11.064;2023-12-07T07:02:54;12.00;;;7.70;;
68744;SDS011;73143;45.456;11.064;2023-12-07T07:05:31;12.70;;;8.80;;
68744;SDS011;73143;45.456;11.064;2023-12-07T07:08:08;11.10;;;6.90;;
68744;SDS011;73143;45.456;11.064;2023-12-07T07:10:46;12.00;;;7.60;;
68744;SDS011;73143;45.456;11.064;2023-12-07T07:13:23;13.10;;;8.30;;
68744;SDS011;73143;45.456;11.064;2023-12-07T07:16:00;14.40;;;8.90;;
68744;SDS011;73143;45.456;11.064;2023-12-07T07:18:41;15.60;;;11.30;;
68744;SDS011;73143;45.456;11.064;2023-12-07T07:21:19;20.60;;;13.80;;
68744;SDS011;73143;45.456;11.064;2023-12-07T07:23:56;17.60;;;12.50;;
68744;SDS011;73143;45.456;11.064;2023-12-07T07:26:33;21.10;;;12.20;;
68744;SDS011;73143;45.456;11.064;2023-12-07T07:29:10;23.00;;;11.90;;
68744;SDS011;73143;45.456;11.064;2023-12-07T07:31:47;18.70;;;12.40;;
68744;SDS011;73143;45.456;11.064;2023-12-07T07:34:25;16.80;;;10.90;;
68744;SDS011;73143;45.456;11.064;2023-12-07T07:37:02;16.90;;;9.50;;
68744;SDS011;73143;45.456;11.064;2023-12-07T07:39:41;14.20;;;9.30;;
68744;SDS011;73143;45.456;11.064;2023-12-07T07:42:18;14.60;;;9.00;;
68744;SDS011;73143;45.456;11.064;2023-12-07T07:44:56;26.90;;;12.80;;
68744;SDS011;73143;45.456;11.064;2023-12-07T07:47:33;27.00;;;15.00;;
68744;SDS011;73143;45.456;11.064;2023-12-07T07:50:11;16.00;;;11.30;;
68744;SDS011;73143;45.456;11.064;2023-12-07T07:52:50;22.50;;;12.80;;
68744;SDS011;73143;45.456;11.064;2023-12-07T07:55:26;18.30;;;12.30;;
68744;SDS011;73143;45.456;11.064;2023-12-07T07:58:03;19.50;;;12.70;;
68744;SDS011;73143;45.456;11.064;2023-12-07T08:00:40;18.50;;;12.80;;
68744;SDS011;73143;45.456;11.064;2023-12-07T08:03:19;20.60;;;13.30;;
68744;SDS011;73143;45.456;11.064;2023-12-07T08:05:55;20.50;;;13.00;;
68744;SDS011;73143;45.456;11.064;2023-12-07T08:08:33;21.60;;;14.10;;
68744;SDS011;73143;45.456;11.064;2023-12-07T08:11:09;18.80;;;13.10;;
68744;SDS011;73143;45.456;11.064;2023-12-07T08:13:48;22.00;;;14.40;;
68744;SDS011;73143;45.456;11.064;2023-12-07T08:16:24;22.80;;;14.20;;
68744;SDS011;73143;45.456;11.064;2023-12-07T08:19:01;20.50;;;14.10;;
68744;SDS011;73143;45.456;11.064;2023-12-07T08:21:38;24.40;;;14.10;;
68744;SDS011;73143;45.456;11.064;2023-12-07T08:24:15;23.30;;;14.70;;
68744;SDS011;73143;45.456;11.064;2023-12-07T08:26:52;22.80;;;14.90;;
68744;SDS011;73143;45.456;11.064;2023-12-07T08:29:29;21.70;;;14.10;;
68744;SDS011;73143;45.456;11.064;2023-12-07T08:32:07;22.90;;;13.60;;
68744;SDS011;73143;45.456;11.064;2023-12-07T08:34:43;22.50;;;13.80;;
68744;SDS011;73143;45.456;11.064;2023-12-07T08:37:20;22.20;;;13.80;;
68744;SDS011;73143;45.456;11.064;2023-12-07T08:39:59;19.40;;;13.40;;
68744;SDS011;73143;45.456;11.064;2023-12-07T08:42:36;21.50;;;12.70;;
68744;SDS011;73143;45.456;11.064;2023-12-07T08:45:14;18.60;;;12.10;;
68744;SDS011;73143;45.456;11.064;2023-12-07T08:47:51;17.80;;;12.80;;
68744;SDS011;73143;45.456;11.064;2023-12-07T08:50:29;21.20;;;13.50;;
68744;SDS011;73143;45.456;11.064;2023-12-07T08:53:05;17.60;;;12.30;;
68744;SDS011;73143;45.456;11.064;2023-12-07T08:55:42;17.50;;;12.30;;
68744;SDS011;73143;45.456;11.064;2023-12-07T08:58:19;19.20;;;12.20;;
68744;SDS011;73143;45.456;11.064;2023-12-07T09:00:56;21.30;;;12.40;;
68744;SDS011;73143;45.456;11.064;2023-12-07T09:03:33;18.50;;;12.50;;
68744;SDS011;73143;45.456;11.064;2023-12-07T09:06:12;18.40;;;11.70;;
68744;SDS011;73143;45.456;11.064;2023-12-07T09:08:48;15.20;;;11.00;;
68744;SDS011;73143;45.456;11.064;2023-12-07T09:11:27;17.50;;;12.30;;
68744;SDS011;73143;45.456;11.064;2023-12-07T09:14:04;20.10;;;13.30;;
68744;SDS011;73143;45.456;11.064;2023-12-07T09:16:47;19.90;;;12.30;;
68744;SDS011;73143;45.456;11.064;2023-12-07T09:19:24;18.10;;;12.00;;
68744;SDS011;73143;45.456;11.064;2023-12-07T09:22:02;17.80;;;12.80;;
68744;SDS011;73143;45.456;11.064;2023-12-07T09:24:39;17.40;;;11.90;;
68744;SDS011;73143;45.456;11.064;2023-12-07T09:27:17;23.40;;;12.50;;
68744;SDS011;73143;45.456;11.064;2023-12-07T09:29:53;17.90;;;12.30;;
68744;SDS011;73143;45.456;11.064;2023-12-07T09:32:30;17.70;;;12.00;;
68744;SDS011;73143;45.456;11.064;2023-12-07T09:35:12;18.50;;;11.90;;
68744;SDS011;73143;45.456;11.064;2023-12-07T09:37:52;19.70;;;11.60;;
68744;SDS011;73143;45.456;11.064;2023-12-07T09:40:30;18.40;;;11.20;;
68744;SDS011;73143;45.456;11.064;2023-12-07T09:43:08;21.10;;;12.10;;
68744;SDS011;73143;45.456;11.064;2023-12-07T09:45:46;16.50;;;11.70;;
68744;SDS011;73143;45.456;11.064;2023-12-07T09:48:29;19.40;;;12.60;;
68744;SDS011;73143;45.456;11.064;2023-12-07T09:51:09;22.40;;;12.80;;
68744;SDS011;73143;45.456;11.064;2023-12-07T09:53:47;20.40;;;13.40;;
68744;SDS011;73143;45.456;11.064;2023-12-07T09:56:29;18.40;;;12.20;;
68744;SDS011;73143;45.456;11.064;2023-12-07T09:59:12;18.70;;;13.70;;
68744;SDS011;73143;45.456;11.064;2023-12-07T10:02:00;21.00;;;13.50;;
68744;SDS011;73143;45.456;11.064;2023-12-07T10:04:39;20.10;;;12.70;;
68744;SDS011;73143;45.456;11.064;2023-12-07T10:07:39;20.30;;;14.10;;
68744;SDS011;73143;45.456;11.064;2023-12-07T10:10:20;20.20;;;13.50;;
68744;SDS011;73143;45.456;11.064;2023-12-07T10:12:58;18.90;;;14.00;;
68744;SDS011;73143;45.456;11.064;2023-12-07T10:15:36;19.30;;;13.00;;
68744;SDS011;73143;45.456;11.064;2023-12-07T10:18:14;20.00;;;12.80;;
68744;SDS011;73143;45.456;11.064;2023-12-07T10:20:59;20.00;;;13.70;;
68744;SDS011;73143;45.456;11.064;2023-12-07T10:23:38;24.00;;;15.10;;
68744;SDS011;73143;45.456;11.064;2023-12-07T10:26:20;17.40;;;13.80;;
68744;SDS011;73143;45.456;11.064;2023-12-07T10:29:06;19.40;;;14.00;;
68744;SDS011;73143;45.456;11.064;2023-12-07T10:32:04;20.10;;;12.80;;
68744;SDS011;73143;45.456;11.064;2023-12-07T10:35:09;19.40;;;13.30;;
68744;SDS011;73143;45.456;11.064;2023-12-07T10:37:49;21.70;;;13.20;;
68744;SDS011;73143;45.456;11.064;2023-12-07T10:40:45;20.90;;;13.60;;
68744;SDS011;73143;45.456;11.064;2023-12-07T10:43:51;20.10;;;13.30;;
68744;SDS011;73143;45.456;11.064;2023-12-07T10:46:44;20.60;;;13.30;;
68744;SDS011;73143;45.456;11.064;2023-12-07T10:49:35;23.40;;;14.20;;
68744;SDS011;73143;45.456;11.064;2023-12-07T10:52:35;19.20;;;13.70;;
68744;SDS011;73143;45.456;11.064;2023-12-07T10:55:45;20.00;;;13.90;;
68744;SDS011;73143;45.456;11.064;2023-12-07T10:58:40;19.40;;;13.30;;
68744;SDS011;73143;45.456;11.064;2023-12-07T11:01:42;21.40;;;12.40;;
68744;SDS011;73143;45.456;11.064;2023-12-07T11:04:25;20.80;;;14.10;;
68744;SDS011;73143;45.456;11.064;2023-12-07T11:07:19;20.90;;;14.70;;
68744;SDS011;73143;45.456;11.064;2023-12-07T11:10:14;22.40;;;15.20;;
68744;SDS011;73143;45.456;11.064;2023-12-07T11:13:08;21.20;;;14.00;;
68744;SDS011;73143;45.456;11.064;2023-12-07T11:16:04;22.40;;;15.30;;
68744;SDS011;73143;45.456;11.064;2023-12-07T11:18:44;23.70;;;14.50;;
68744;SDS011;73143;45.456;11.064;2023-12-07T11:21:52;21.10;;;14.30;;
68744;SDS011;73143;45.456;11.064;2023-12-07T11:24:39;20.20;;;14.70;;
68744;SDS011;73143;45.456;11.064;2023-12-07T11:27:34;26.60;;;16.10;;
68744;SDS011;73143;45.456;11.064;2023-12-07T11:30:38;26.60;;;15.80;;
68744;SDS011;73143;45.456;11.064;2023-12-07T11:33:42;24.70;;;15.90;;
68744;SDS011;73143;45.456;11.064;2023-12-07T11:36:52;22.80;;;15.10;;
68744;SDS011;73143;45.456;11.064;2023-12-07T11:39:44;18.90;;;14.60;;
68744;SDS011;73143;45.456;11.064;2023-12-07T11:42:41;23.90;;;14.70;;
68744;SDS011;73143;45.456;11.064;2023-12-07T11:45:46;18.40;;;14.40;;
68744;SDS011;73143;45.456;11.064;2023-12-07T11:48:59;22.20;;;14.00;;
68744;SDS011;73143;45.456;11.064;2023-12-07T11:54:59;19.50;;;13.70;;
68744;SDS011;73143;45.456;11.064;2023-12-07T11:58:10;18.30;;;12.80;;
68744;SDS011;73143;45.456;11.064;2023-12-07T12:01:04;20.60;;;14.60;;
68744;SDS011;73143;45.456;11.064;2023-12-07T12:04:04;21.70;;;14.60;;
68744;SDS011;73143;45.456;11.064;2023-12-07T12:07:05;20.80;;;14.60;;
68744;SDS011;73143;45.456;11.064;2023-12-07T12:10:20;21.00;;;14.50;;
68744;SDS011;73143;45.456;11.064;2023-12-07T12:13:09;21.80;;;14.60;;
68744;SDS011;73143;45.456;11.064;2023-12-07T12:15:59;21.00;;;14.90;;
68744;SDS011;73143;45.456;11.064;2023-12-07T12:18:46;20.30;;;15.10;;
68744;SDS011;73143;45.456;11.064;2023-12-07T12:21:54;21.60;;;15.30;;
68744;SDS011;73143;45.456;11.064;2023-12-07T12:24:53;20.90;;;14.40;;
68744;SDS011;73143;45.456;11.064;2023-12-07T12:27:53;20.40;;;15.00;;
68744;SDS011;73143;45.456;11.064;2023-12-07T12:30:44;19.50;;;14.40;;
68744;SDS011;73143;45.456;11.064;2023-12-07T12:34:05;22.60;;;14.80;;
68744;SDS011;73143;45.456;11.064;2023-12-07T12:36:56;24.00;;;15.80;;
68744;SDS011;73143;45.456;11.064;2023-12-07T12:39:52;21.90;;;14.90;;
68744;SDS011;73143;45.456;11.064;2023-12-07T12:42:42;19.00;;;14.60;;
68744;SDS011;73143;45.456;11.064;2023-12-07T12:45:44;26.50;;;16.30;;
68744;SDS011;73143;45.456;11.064;2023-12-07T12:49:11;21.90;;;15.20;;
68744;SDS011;73143;45.456;11.064;2023-12-07T12:52:14;23.50;;;15.70;;
68744;SDS011;73143;45.456;11.064;2023-12-07T12:55:17;24.80;;;16.40;;
68744;SDS011;73143;45.456;11.064;2023-12-07T12:58:20;19.90;;;14.70;;
68744;SDS011;73143;45.456;11.064;2023-12-07T13:01:09;21.30;;;15.30;;
68744;SDS011;73143;45.456;11.064;2023-12-07T13:04:06;21.80;;;16.10;;
68744;SDS011;73143;45.456;11.064;2023-12-07T13:07:02;23.50;;;14.90;;
68744;SDS011;73143;45.456;11.064;2023-12-07T13:09:57;22.10;;;14.60;;
68744;SDS011;73143;45.456;11.064;2023-12-07T13:12:48;19.40;;;14.20;;
68744;SDS011;73143;45.456;11.064;2023-12-07T13:15:35;21.70;;;15.00;;
68744;SDS011;73143;45.456;11.064;2023-12-07T13:18:21;20.10;;;15.00;;
68744;SDS011;73143;45.456;11.064;2023-12-07T13:21:20;19.90;;;14.40;;
68744;SDS011;73143;45.456;11.064;2023-12-07T13:24:09;19.80;;;14.20;;
68744;SDS011;73143;45.456;11.064;2023-12-07T13:27:03;19.90;;;14.80;;
68744;SDS011;73143;45.456;11.064;2023-12-07T13:29:58;20.40;;;13.40;;
68744;SDS011;73143;45.456;11.064;2023-12-07T13:32:58;20.10;;;13.70;;
68744;SDS011;73143;45.456;11.064;2023-12-07T13:35:59;21.50;;;14.70;;
68744;SDS011;73143;45.456;11.064;2023-12-07T13:38:51;22.20;;;14.10;;
68744;SDS011;73143;45.456;11.064;2023-12-07T13:41:29;20.30;;;14.60;;
68744;SDS011;73143;45.456;11.064;2023-12-07T13:44:28;18.90;;;14.80;;
68744;SDS011;73143;45.456;11.064;2023-12-07T13:47:16;20.90;;;14.50;;
68744;SDS011;73143;45.456;11.064;2023-12-07T13:50:12;20.00;;;15.20;;
68744;SDS011;73143;45.456;11.064;2023-12-07T13:53:12;19.90;;;15.30;;
68744;SDS011;73143;45.456;11.064;2023-12-07T13:55:53;19.70;;;14.70;;
68744;SDS011;73143;45.456;11.064;2023-12-07T13:58:49;20.50;;;15.20;;
68744;SDS011;73143;45.456;11.064;2023-12-07T14:01:41;22.30;;;15.90;;
68744;SDS011;73143;45.456;11.064;2023-12-07T14:04:44;24.70;;;14.80;;
68744;SDS011;73143;45.456;11.064;2023-12-07T14:07:42;22.60;;;16.10;;
68744;SDS011;73143;45.456;11.064;2023-12-07T14:10:31;20.40;;;16.70;;
68744;SDS011;73143;45.456;11.064;2023-12-07T14:13:16;22.70;;;16.30;;
68744;SDS011;73143;45.456;11.064;2023-12-07T14:16:22;24.20;;;16.50;;
68744;SDS011;73143;45.456;11.064;2023-12-07T14:19:28;23.10;;;16.30;;
68744;SDS011;73143;45.456;11.064;2023-12-07T14:22:38;22.30;;;16.40;;
68744;SDS011;73143;45.456;11.064;2023-12-07T14:25:52;23.70;;;17.10;;
68744;SDS011;73143;45.456;11.064;2023-12-07T14:28:49;24.20;;;16.50;;
68744;SDS011;73143;45.456;11.064;2023-12-07T14:31:47;26.40;;;17.70;;
68744;SDS011;73143;45.456;11.064;2023-12-07T14:34:32;28.50;;;19.40;;
68744;SDS011;73143;45.456;11.064;2023-12-07T14:37:29;27.50;;;20.30;;
68744;SDS011;73143;45.456;11.064;2023-12-07T14:40:14;27.70;;;19.40;;
68744;SDS011;73143;45.456;11.064;2023-12-07T14:42:59;29.10;;;19.80;;
68744;SDS011;73143;45.456;11.064;2023-12-07T14:45:59;31.10;;;20.70;;
68744;SDS011;73143;45.456;11.064;2023-12-07T14:49:01;29.60;;;20.40;;
68744;SDS011;73143;45.456;11.064;2023-12-07T14:51:55;30.20;;;22.30;;
68744;SDS011;73143;45.456;11.064;2023-12-07T14:54:53;24.70;;;20.10;;
68744;SDS011;73143;45.456;11.064;2023-12-07T14:57:44;29.50;;;20.90;;
68744;SDS011;73143;45.456;11.064;2023-12-07T15:00:32;33.40;;;23.70;;
68744;SDS011;73143;45.456;11.064;2023-12-07T15:03:19;30.80;;;22.50;;
68744;SDS011;73143;45.456;11.064;2023-12-07T15:06:09;34.40;;;24.50;;
68744;SDS011;73143;45.456;11.064;2023-12-07T15:09:19;35.20;;;24.50;;
68744;SDS011;73143;45.456;11.064;2023-12-07T15:12:14;32.50;;;24.10;;
68744;SDS011;73143;45.456;11.064;2023-12-07T15:15:22;32.70;;;23.00;;
68744;SDS011;73143;45.456;11.064;2023-12-07T15:18:21;34.50;;;24.30;;
68744;SDS011;73143;45.456;11.064;2023-12-07T15:21:26;36.10;;;24.70;;
68744;SDS011;73143;45.456;11.064;2023-12-07T15:24:37;35.60;;;23.90;;
68744;SDS011;73143;45.456;11.064;2023-12-07T15:27:37;32.60;;;22.80;;
68744;SDS011;73143;45.456;11.064;2023-12-07T15:30:38;38.10;;;25.00;;
68744;SDS011;73143;45.456;11.064;2023-12-07T15:33:29;35.30;;;24.80;;
68744;SDS011;73143;45.456;11.064;2023-12-07T15:36:32;37.20;;;24.20;;
68744;SDS011;73143;45.456;11.064;2023-12-07T15:39:52;48.20;;;29.60;;
68744;SDS011;73143;45.456;11.064;2023-12-07T15:43:00;37.20;;;25.40;;
68744;SDS011;73143;45.456;11.064;2023-12-07T15:45:39;35.60;;;24.60;;
68744;SDS011;73143;45.456;11.064;2023-12-07T15:48:17;34.00;;;23.10;;
68744;SDS011;73143;45.456;11.064;2023-12-07T15:51:10;31.40;;;20.60;;
68744;SDS011;73143;45.456;11.064;2023-12-07T15:54:13;31.30;;;21.00;;
68744;SDS011;73143;45.456;11.064;2023-12-07T15:57:27;30.10;;;20.00;;